createdAt,value
2023-03-21T18:15:19.663Z,32.40
2023-03-21T18:15:31.009Z,39.30
2023-03-21T18:15:39.747Z,46.10
2023-03-21T18:15:55.171Z,44.00
2023-03-21T18:16:04.736Z,38.60
2023-03-21T18:16:14.634Z,33.80
2023-03-21T18:16:24.822Z,38.90
2023-03-21T18:16:32.529Z,47.00
2023-03-21T18:16:42.138Z,51.10
2023-03-21T18:16:52.241Z,53.10
2023-03-21T18:17:02.213Z,52.20
2023-03-21T18:17:12.371Z,54.40
2023-03-21T18:17:22.428Z,48.10
2023-03-21T18:17:32.574Z,36.60
2023-03-21T18:17:42.818Z,37.00
2023-03-21T18:17:52.917Z,45.80
2023-03-21T18:18:03.212Z,89.10
2023-03-21T18:18:14.051Z,85.30
2023-03-21T18:18:23.446Z,81.80
2023-03-21T18:18:33.887Z,43.00
2023-03-21T18:18:44.490Z,42.40
2023-03-21T18:18:53.703Z,40.70
2023-03-21T18:19:04.317Z,37.60
2023-03-21T18:19:14.865Z,33.40
2023-03-21T18:19:24.209Z,30.40
2023-03-21T18:19:34.516Z,26.30
2023-03-21T18:19:46.617Z,29.70
2023-03-21T18:19:54.605Z,29.00
2023-03-21T18:20:09.695Z,30.60
2023-03-21T18:20:15.530Z,32.00
2023-03-21T18:20:24.970Z,31.90
2023-03-21T18:20:51.070Z,31.60
2023-03-21T18:20:58.320Z,28.70
2023-03-21T18:21:04.247Z,30.40
2023-03-21T18:21:14.419Z,32.60
2023-03-21T18:21:26.500Z,36.70
2023-03-21T18:21:36.065Z,34.80
2023-03-21T18:21:45.730Z,33.40
2023-03-21T18:21:55.001Z,31.40
2023-03-21T18:22:05.029Z,32.50
2023-03-21T18:22:15.931Z,30.90
2023-03-21T18:22:25.275Z,29.50
2023-03-21T18:22:35.391Z,26.80
2023-03-21T18:22:45.596Z,29.70
2023-03-21T18:22:56.497Z,29.00
2023-03-21T18:23:05.859Z,30.70
2023-03-21T18:23:15.946Z,34.80
2023-03-21T18:23:25.995Z,38.30
2023-03-21T18:23:36.992Z,41.50
2023-03-21T18:23:46.207Z,34.50
2023-03-21T18:23:56.467Z,34.20
2023-03-21T18:24:07.465Z,33.50
2023-03-21T18:24:16.657Z,39.60
2023-03-21T18:24:27.260Z,35.90
2023-03-21T18:24:38.203Z,31.60
2023-03-21T18:24:47.029Z,29.10
2023-03-21T18:24:57.547Z,40.90
2023-03-21T18:25:07.276Z,44.70
2023-03-21T18:25:18.547Z,41.60
2023-03-21T18:25:27.455Z,31.80
2023-03-21T18:25:38.480Z,25.90
2023-03-21T18:25:47.797Z,25.70
2023-03-21T18:25:57.921Z,25.40
2023-03-21T18:26:08.870Z,28.00
2023-03-21T18:26:18.112Z,33.00
2023-03-21T18:26:28.310Z,35.10
2023-03-21T18:26:38.365Z,34.10
2023-03-21T18:26:48.681Z,33.10
2023-03-21T18:26:58.728Z,49.80
2023-03-21T18:27:08.733Z,57.50
2023-03-21T18:27:19.018Z,60.80
2023-03-21T18:27:32.907Z,48.30
2023-03-21T18:28:02.032Z,52.90
2023-03-21T18:28:19.392Z,56.10
2023-03-21T18:28:26.000Z,55.30
2023-03-21T18:28:35.145Z,46.60
2023-03-21T18:28:45.367Z,44.00
2023-03-21T18:29:53.510Z,37.20
2023-03-21T18:30:44.566Z,32.50
2023-03-21T18:31:18.234Z,29.20
2023-03-21T18:31:25.131Z,30.10
2023-03-21T18:31:30.767Z,35.10
2023-03-21T18:31:41.269Z,26.90
2023-03-21T18:32:05.082Z,28.60
2023-03-21T18:32:11.329Z,31.30
2023-03-21T18:32:17.126Z,27.60
2023-03-21T18:32:26.921Z,29.80
2023-03-21T18:32:37.044Z,36.50
2023-03-21T18:32:47.204Z,36.50
2023-03-21T18:32:58.369Z,36.60
2023-03-21T18:33:07.341Z,30.10
2023-03-21T18:33:17.600Z,29.80
2023-03-21T18:33:28.455Z,25.90
2023-03-21T18:33:37.682Z,24.20
2023-03-21T18:33:47.987Z,27.90
2023-03-21T18:33:58.963Z,26.70
2023-03-21T18:34:08.162Z,31.60
2023-03-21T18:34:18.323Z,26.90
2023-03-21T18:34:29.537Z,31.50
2023-03-21T18:34:38.564Z,28.90
2023-03-21T18:34:48.834Z,24.20
2023-03-21T18:34:59.425Z,21.70
2023-03-21T18:35:09.008Z,22.70
2023-03-21T18:35:18.973Z,22.40
2023-03-21T18:36:00.364Z,26.70
2023-03-21T18:36:28.914Z,33.60
2023-03-21T18:36:35.054Z,39.70
2023-03-21T18:36:44.985Z,32.80
2023-03-21T18:36:55.145Z,30.90
2023-03-21T18:37:05.115Z,28.40
2023-03-21T18:37:15.250Z,28.40
2023-03-21T18:37:25.452Z,30.30
2023-03-21T18:37:35.901Z,29.80
2023-03-21T18:37:46.452Z,40.40
2023-03-21T18:37:55.815Z,42.90
2023-03-21T18:38:05.939Z,44.40
2023-03-21T18:38:16.118Z,35.60
2023-03-21T18:38:26.866Z,36.80
2023-03-21T18:38:36.390Z,38.70
2023-03-21T18:38:46.419Z,42.20
2023-03-21T18:38:56.651Z,39.80
2023-03-21T18:39:06.643Z,39.10
2023-03-21T18:39:16.818Z,38.00
2023-03-21T18:39:27.937Z,42.30
2023-03-21T18:39:37.024Z,43.40
2023-03-21T18:39:47.225Z,41.00
2023-03-21T18:39:57.908Z,35.80
2023-03-21T18:40:07.308Z,35.30
2023-03-21T18:40:18.441Z,32.70
2023-03-21T18:40:27.546Z,42.00
2023-03-21T18:40:38.185Z,38.80
2023-03-21T18:40:47.791Z,44.10
2023-03-21T18:40:59.343Z,34.70
2023-03-21T18:41:08.092Z,37.10
2023-03-21T18:41:18.920Z,33.10
2023-03-21T18:41:28.305Z,33.70
2023-03-21T18:41:38.946Z,30.20
2023-03-21T18:41:49.529Z,25.80
2023-03-21T18:41:59.055Z,23.00
2023-03-21T18:42:17.217Z,25.30
2023-03-21T18:42:23.533Z,26.20
2023-03-21T18:42:31.083Z,26.70
2023-03-21T18:42:39.911Z,26.50
2023-03-21T18:43:45.888Z,29.10
2023-03-21T18:44:14.229Z,30.50
2023-03-21T18:44:24.986Z,22.50
2023-03-21T18:44:31.026Z,44.80
2023-03-21T18:44:41.050Z,56.20
2023-03-21T18:44:51.485Z,51.10
2023-03-21T18:45:01.080Z,37.00
2023-03-21T18:45:11.954Z,25.70
2023-03-21T18:45:21.346Z,26.60
2023-03-21T18:45:31.643Z,26.70
2023-03-21T18:45:41.717Z,27.40
2023-03-21T18:45:51.961Z,24.60
2023-03-21T18:46:01.934Z,24.10
2023-03-21T18:46:12.038Z,26.30
2023-03-21T18:46:22.908Z,27.00
2023-03-21T18:46:32.236Z,28.50
2023-03-21T18:46:42.525Z,29.60
2023-03-21T18:46:53.424Z,33.10
2023-03-21T18:47:02.716Z,33.90
2023-03-21T18:47:13.485Z,33.30
2023-03-21T18:47:22.877Z,34.90
2023-03-21T18:47:32.953Z,44.30
2023-03-21T18:47:43.168Z,42.10
2023-03-21T18:47:53.929Z,46.40
2023-03-21T18:48:03.462Z,43.20
2023-03-21T18:48:13.534Z,44.80
2023-03-21T18:48:24.077Z,41.40
2023-03-21T18:48:35.122Z,44.30
2023-03-21T18:48:43.902Z,48.90
2023-03-21T18:48:55.502Z,51.60
2023-03-21T18:49:33.914Z,45.40
2023-03-21T18:50:29.051Z,44.00
2023-03-21T18:50:34.746Z,36.40
2023-03-21T18:50:45.463Z,36.80
2023-03-21T18:50:54.931Z,34.90
2023-03-21T18:51:05.210Z,32.50
2023-03-21T18:51:15.269Z,37.40
2023-03-21T18:51:25.485Z,38.80
2023-03-21T18:51:35.839Z,38.50
2023-03-21T18:51:45.627Z,30.20
2023-03-21T18:51:55.731Z,35.90
2023-03-21T18:52:06.046Z,35.60
2023-03-21T18:52:16.591Z,45.90
2023-03-21T18:52:26.208Z,39.50
2023-03-21T18:52:36.663Z,35.40
2023-03-21T18:52:46.497Z,24.70
2023-03-21T18:52:57.348Z,22.60
2023-03-21T18:53:31.538Z,22.60
2023-03-21T18:53:39.108Z,23.00
2023-03-21T18:53:49.083Z,19.30
2023-03-21T18:54:00.808Z,22.50
2023-03-21T18:54:09.264Z,22.00
2023-03-21T18:54:17.748Z,23.90
2023-03-21T18:54:28.137Z,29.60
2023-03-21T18:54:38.121Z,30.00
2023-03-21T18:54:48.025Z,28.90
2023-03-21T18:54:58.246Z,21.60
2023-03-21T18:55:08.640Z,28.20
2023-03-21T18:55:18.978Z,32.10
2023-03-21T18:55:44.755Z,32.00
2023-03-21T18:55:57.364Z,28.00
2023-03-21T18:56:03.149Z,24.10
2023-03-21T18:56:46.825Z,23.60
2023-03-21T18:57:34.504Z,27.60
2023-03-21T18:58:23.927Z,25.90
2023-03-21T18:58:29.364Z,33.10
2023-03-21T18:58:39.584Z,36.70
2023-03-21T18:58:50.388Z,32.10
2023-03-21T18:58:59.686Z,33.90
2023-03-21T18:59:09.998Z,32.60
2023-03-21T18:59:21.301Z,33.10
2023-03-21T18:59:30.105Z,28.90
2023-03-21T18:59:40.227Z,32.90
2023-03-21T18:59:50.427Z,31.90
2023-03-21T19:00:00.814Z,34.60
2023-03-21T19:00:11.070Z,29.70
2023-03-21T19:00:20.948Z,29.40
2023-03-21T19:00:31.006Z,26.00
2023-03-21T19:00:42.660Z,25.10
2023-03-21T19:00:51.213Z,27.90
2023-03-21T19:01:04.583Z,31.40
2023-03-21T19:01:11.482Z,32.10
2023-03-21T19:01:21.701Z,29.60
2023-03-21T19:01:31.798Z,24.80
2023-03-21T19:01:42.247Z,23.70
2023-03-21T19:01:51.998Z,23.10
2023-03-21T19:02:02.913Z,24.60
2023-03-21T19:02:12.169Z,25.50
2023-03-21T19:02:22.610Z,28.20
2023-03-21T19:02:32.499Z,37.40
2023-03-21T19:02:46.698Z,43.30
2023-03-21T19:03:04.226Z,43.10
2023-03-21T19:03:36.335Z,35.20
2023-03-21T19:03:53.188Z,32.90
2023-03-21T19:04:29.692Z,38.00
2023-03-21T19:04:38.132Z,35.80
2023-03-21T19:04:45.442Z,60.30
2023-03-21T19:04:53.916Z,58.60
2023-03-21T19:05:04.003Z,59.00
2023-03-21T19:05:15.997Z,42.20
2023-03-21T19:05:24.415Z,38.40
2023-03-21T19:05:34.475Z,33.40
2023-03-21T19:05:44.832Z,32.50
2023-03-21T19:05:54.915Z,34.00
2023-03-21T19:06:05.353Z,45.00
2023-03-21T19:06:17.217Z,48.40
2023-03-21T19:06:25.108Z,56.10
2023-03-21T19:06:35.242Z,80.00
2023-03-21T19:06:45.507Z,111.20
2023-03-21T19:06:55.465Z,106.00
2023-03-21T19:07:05.618Z,56.30
2023-03-21T19:07:17.247Z,33.00
2023-03-21T19:07:25.744Z,39.80
2023-03-21T19:07:36.322Z,48.70
2023-03-21T19:07:47.154Z,49.00
2023-03-21T19:07:56.230Z,40.20
2023-03-21T19:08:06.394Z,29.00
2023-03-21T19:08:16.450Z,27.80
2023-03-21T19:08:27.758Z,24.20
2023-03-21T19:08:37.456Z,25.20
2023-03-21T19:08:46.823Z,25.10
2023-03-21T19:09:10.180Z,28.20
2023-03-21T19:09:15.926Z,32.00
2023-03-21T19:09:31.125Z,34.50
2023-03-21T19:09:58.055Z,33.20
2023-03-21T19:10:17.806Z,30.70
2023-03-21T19:10:23.914Z,27.60
2023-03-21T19:10:29.792Z,25.70
2023-03-21T19:10:40.787Z,29.70
2023-03-21T19:10:49.847Z,33.20
2023-03-21T19:11:03.676Z,33.80
2023-03-21T19:11:11.188Z,35.50
2023-03-21T19:11:20.891Z,33.20
2023-03-21T19:11:31.168Z,32.30
2023-03-21T19:11:40.540Z,29.10
2023-03-21T19:11:50.695Z,28.20
2023-03-21T19:12:01.927Z,34.10
2023-03-21T19:12:10.919Z,40.10
2023-03-21T19:12:21.229Z,40.80
2023-03-21T19:12:31.291Z,39.00
2023-03-21T19:12:41.979Z,33.00
2023-03-21T19:12:51.494Z,30.30
2023-03-21T19:13:01.575Z,29.70
2023-03-21T19:13:11.695Z,30.20
2023-03-21T19:13:21.931Z,33.20
2023-03-21T19:13:32.041Z,29.70
2023-03-21T19:13:43.030Z,27.70
2023-03-21T19:13:52.140Z,28.00
2023-03-21T19:14:02.356Z,27.10
2023-03-21T19:14:13.482Z,28.80
2023-03-21T19:14:22.561Z,30.50
2023-03-21T19:14:33.429Z,32.00
2023-03-21T19:14:42.828Z,30.70
2023-03-21T19:14:52.944Z,31.90
2023-03-21T19:15:03.999Z,35.10
2023-03-21T19:15:13.548Z,37.40
2023-03-21T19:15:23.609Z,34.90
2023-03-21T19:15:33.941Z,33.20
